• Join FlightAware (Why Join?)
  • Login
  • US Flag 
04:15AM EST


 

Airport Tracker/Info


-or-


 

Live Flight TrackerFlight Track Log ✈ EJA695 ✈ 11-Jul-2013 ✈ KMHR - KSJC

Flight Track Log - Related Links

Times and Time Zones

All times are in EDT time to prevent confusion due to time zone crossing. See the EJA695 flight status page for this flight to view local times or setup timezone preferences in your user account.

Time Position Orientation Groundspeed Altitude Reporting Facility
EDT Latitude Longitude Course Direction KTS MPH feet Rate Location/Type
02:27PM 38.4833 -121.3000 156° South 266 306 2,900  Level Northern Cal TRACON
02:28PM 38.4667 -121.2428 110° East 260 299 3,400 2,280 Climbing Oakland Center
02:29PM 38.4458 -121.1378 104° East 266 306 7,100 3,060 Climbing Oakland Center
02:30PM 38.4003 -121.0614 127° Southeast 279 321 9,700 1,860 Climbing Oakland Center
02:31PM 38.3383 -120.9839 136° Southeast 305 351 11,000 600 Climbing Oakland Center
02:32PM 38.2740 -121.4375 156° South  Level FlightAware Approximate
02:32PM 38.2567 -120.9225 149° Southeast 356 410 11,000  Level Oakland Center
02:33PM 38.1614 -120.9256 181° South 342 394 11,000  Level Oakland Center
02:34PM 38.0647 -120.9317 183° South 347 399 11,000  Level Oakland Center
02:35PM 37.9786 -120.9372 183° South 311 358 11,000  Level Oakland Center
02:36PM 37.8981 -120.9411 182° South 290 334 11,000 -480 Level Oakland Center
02:37PM 37.8017 -120.9464 182° South 288 331 10,100 -960 Descending Oakland Center
02:38PM 37.7272 -120.9525 184° South 276 318 9,100 -540 Descending Oakland Center
02:39PM 37.6597 -120.9533 181° South 251 289 9,000 -60 Descending Oakland Center
02:40PM 37.6000 -121.0000 212° Southwest 250 288 9,000  Level Northern Cal TRACON
02:41PM 37.5500 -121.0667 227° Southwest 249 287 9,000  Level Northern Cal TRACON
02:42PM 37.5167 -121.1333 238° Southwest 249 287 9,000 -420 Level Northern Cal TRACON
02:43PM 37.4667 -121.2167 233° Southwest 246 283 8,200 -540 Descending Northern Cal TRACON
02:44PM 37.4333 -121.2667 230° Southwest 247 284 8,000 -120 Descending Northern Cal TRACON
02:45PM 37.3833 -121.3500 233° Southwest 286 329 8,000 -180 Level Northern Cal TRACON
02:46PM 37.3333 -121.4333 233° Southwest 282 325 7,700 -600 Descending Northern Cal TRACON
02:47PM 37.2761 -121.5147 229° Southwest 277 319 6,700 -780 Descending Oakland Center
02:48PM 37.2289 -121.5892 231° Southwest 273 314 6,100 -300 Descending Oakland Center
02:49PM 37.2219 -121.6747 264° West 283 326 6,100 -840 Level Oakland Center
02:50PM 37.2406 -121.7547 286° West 249 287 4,500 -1,740 Descending Oakland Center
02:51PM 37.2647 -121.8322 291° West 243 280 2,600 -1,560 Descending Oakland Center
02:52PM 37.3144 -121.8750 326° Northwest 223 257 1,300 -1,140 Descending Oakland Center
02:53PM 37.3442 -121.9128 315° West 181 208 300 -1,020 Descending Oakland Center
02:55PM 37.3500 -121.9167 North  Level FlightAware Approximate
03:02PM 37.3627 -121.9291 North  Level Estimated